createdAt,value
2022-08-03T00:00:16.502Z,29.674
2022-08-03T00:05:16.458Z,29.673
2022-08-03T00:10:16.430Z,29.675
2022-08-03T00:15:17.175Z,29.679
2022-08-03T00:20:16.500Z,29.681
2022-08-03T00:25:30.090Z,29.687
2022-08-03T00:30:16.876Z,29.691
2022-08-03T00:35:36.883Z,29.691
2022-08-03T00:40:16.485Z,29.694
2022-08-03T00:45:16.874Z,29.696
2022-08-03T00:50:16.558Z,29.697
2022-08-03T00:55:16.782Z,29.701
2022-08-03T01:00:16.587Z,29.701
2022-08-03T01:05:16.545Z,29.705
2022-08-03T01:10:16.610Z,29.705
2022-08-03T01:15:16.820Z,29.705
2022-08-03T01:20:16.517Z,29.706
2022-08-03T01:25:16.718Z,29.708
2022-08-03T01:30:16.954Z,29.709
2022-08-03T01:35:16.638Z,29.712
2022-08-03T01:40:16.690Z,29.714
2022-08-03T01:45:16.679Z,29.717
2022-08-03T01:50:16.708Z,29.715
2022-08-03T01:55:17.010Z,29.715
2022-08-03T02:00:17.000Z,29.720
2022-08-03T02:05:16.924Z,29.719
2022-08-03T02:10:16.570Z,29.721
2022-08-03T02:15:16.762Z,29.720
2022-08-03T02:20:16.665Z,29.719
2022-08-03T02:25:16.749Z,29.720
2022-08-03T02:30:16.686Z,29.719
2022-08-03T02:35:17.265Z,29.718
2022-08-03T02:40:16.888Z,29.718
2022-08-03T02:45:16.895Z,29.720
2022-08-03T02:50:17.003Z,29.724
2022-08-03T02:55:16.798Z,29.722
2022-08-03T03:00:27.373Z,29.728
2022-08-03T03:05:54.449Z,29.730
2022-08-03T03:10:16.733Z,29.734
2022-08-03T03:15:17.567Z,29.735
2022-08-03T03:20:29.705Z,29.734
2022-08-03T03:25:16.910Z,29.734
2022-08-03T03:30:16.933Z,29.735
2022-08-03T03:35:16.859Z,29.737
2022-08-03T03:40:17.027Z,29.739
2022-08-03T03:45:17.244Z,29.740
2022-08-03T03:50:17.153Z,29.737
2022-08-03T03:55:16.933Z,29.739
2022-08-03T04:00:18.233Z,29.740
2022-08-03T04:05:17.930Z,29.741
2022-08-03T04:10:17.909Z,29.743
2022-08-03T04:15:18.162Z,29.748
2022-08-03T04:20:18.104Z,29.749
2022-08-03T04:25:18.467Z,29.752
2022-08-03T04:30:18.218Z,29.753
2022-08-03T04:35:17.886Z,29.755
2022-08-03T04:40:17.950Z,29.754
2022-08-03T04:45:18.013Z,29.750
2022-08-03T04:50:21.403Z,29.754
2022-08-03T04:55:17.971Z,29.755
2022-08-03T05:00:18.040Z,29.756
2022-08-03T05:05:18.137Z,29.759
2022-08-03T05:10:18.241Z,29.763
2022-08-03T05:15:18.091Z,29.763
2022-08-03T05:20:18.801Z,29.763
2022-08-03T05:25:19.764Z,29.760
2022-08-03T05:30:29.867Z,29.763
2022-08-03T05:36:02.098Z,29.762
2022-08-03T05:40:18.007Z,29.763
2022-08-03T05:45:18.393Z,29.764
2022-08-03T05:50:18.094Z,29.763
2022-08-03T05:55:18.215Z,29.763
2022-08-03T06:00:18.332Z,29.758
2022-08-03T06:05:18.252Z,29.758
2022-08-03T06:10:35.635Z,29.760
2022-08-03T06:15:18.289Z,29.762
2022-08-03T06:20:16.318Z,29.763
2022-08-03T06:25:16.169Z,29.765
2022-08-03T06:30:20.869Z,29.767
2022-08-03T06:35:16.984Z,29.769
2022-08-03T06:40:16.156Z,29.772
2022-08-03T06:45:16.452Z,29.773
2022-08-03T06:50:18.459Z,29.774
2022-08-03T06:55:16.242Z,29.777
2022-08-03T07:00:16.550Z,29.778
2022-08-03T07:05:16.318Z,29.779
2022-08-03T07:10:16.376Z,29.781
2022-08-03T07:15:20.540Z,29.783
2022-08-03T07:20:16.387Z,29.784
2022-08-03T07:25:16.248Z,29.790
2022-08-03T07:30:16.368Z,29.791
2022-08-03T07:35:24.198Z,29.793
2022-08-03T07:40:17.660Z,29.793
2022-08-03T07:45:16.931Z,29.792
2022-08-03T07:50:16.285Z,29.793
2022-08-03T07:55:16.389Z,29.795
2022-08-03T08:00:16.616Z,29.796
2022-08-03T08:05:16.636Z,29.799
2022-08-03T08:10:16.353Z,29.798
2022-08-03T08:15:16.950Z,29.805
2022-08-03T08:20:16.400Z,29.808
2022-08-03T08:25:16.466Z,29.811
2022-08-03T08:30:19.237Z,29.815
2022-08-03T08:35:16.568Z,29.816
2022-08-03T08:40:17.496Z,29.819
2022-08-03T08:45:16.554Z,29.824
2022-08-03T08:50:27.862Z,29.827
2022-08-03T08:55:16.458Z,29.831
2022-08-03T09:00:16.631Z,29.833
2022-08-03T09:05:18.125Z,29.833
2022-08-03T09:10:16.585Z,29.838
2022-08-03T09:15:17.417Z,29.841
2022-08-03T09:20:16.466Z,29.843
2022-08-03T09:25:25.052Z,29.846
2022-08-03T09:30:34.788Z,29.845
2022-08-03T09:35:27.932Z,29.846
2022-08-03T09:40:16.557Z,29.848
2022-08-03T09:45:16.701Z,29.850
2022-08-03T09:50:16.777Z,29.851
2022-08-03T09:56:32.865Z,29.855
2022-08-03T09:56:35.630Z,29.855
2022-08-03T10:00:16.871Z,29.857
2022-08-03T10:05:19.415Z,29.860
2022-08-03T10:10:30.468Z,29.862
2022-08-03T10:16:22.022Z,29.866
2022-08-03T10:16:25.622Z,29.866
2022-08-03T10:20:17.486Z,29.869
2022-08-03T10:25:16.635Z,29.868
2022-08-03T10:30:16.742Z,29.870
2022-08-03T10:35:20.205Z,29.866
2022-08-03T10:40:33.448Z,29.870
2022-08-03T10:45:16.998Z,29.868
2022-08-03T10:50:16.711Z,29.867
2022-08-03T10:55:16.860Z,29.867
2022-08-03T11:00:17.079Z,29.868
2022-08-03T11:05:16.852Z,29.867
2022-08-03T11:10:16.778Z,29.867
2022-08-03T11:15:16.805Z,29.866
2022-08-03T11:20:16.890Z,29.863
2022-08-03T11:25:53.099Z,29.862
2022-08-03T11:30:16.872Z,29.862
2022-08-03T11:35:16.901Z,29.861
2022-08-03T11:40:16.867Z,29.861
2022-08-03T11:45:17.218Z,29.860
2022-08-03T11:50:16.762Z,29.861
2022-08-03T11:55:16.890Z,29.864
2022-08-03T12:00:16.931Z,29.865
2022-08-03T12:05:16.851Z,29.868
2022-08-03T12:10:16.954Z,29.872
2022-08-03T12:15:16.998Z,29.876
2022-08-03T12:20:17.046Z,29.879
2022-08-03T12:25:17.204Z,29.880
2022-08-03T12:30:17.212Z,29.879
2022-08-03T12:35:16.975Z,29.881
2022-08-03T12:40:20.556Z,29.883
2022-08-03T12:45:17.074Z,29.883
2022-08-03T12:50:16.923Z,29.883
2022-08-03T12:55:17.158Z,29.887
2022-08-03T13:00:21.391Z,29.888
2022-08-03T13:05:17.051Z,29.892
2022-08-03T13:10:17.670Z,29.892
2022-08-03T13:15:17.277Z,29.892
2022-08-03T13:20:17.147Z,29.893
2022-08-03T13:25:17.192Z,29.887
2022-08-03T13:30:24.974Z,29.889
2022-08-03T13:35:17.312Z,29.889
2022-08-03T13:40:17.094Z,29.890
2022-08-03T13:45:17.276Z,29.890
2022-08-03T13:50:17.082Z,29.894
2022-08-03T13:55:17.138Z,29.899
2022-08-03T14:00:27.704Z,29.901
2022-08-03T14:05:17.176Z,29.909
2022-08-03T14:10:17.947Z,29.910
2022-08-03T14:15:17.326Z,29.911
2022-08-03T14:20:36.587Z,29.915
2022-08-03T14:25:17.270Z,29.913
2022-08-03T14:30:17.394Z,29.914
2022-08-03T14:35:17.433Z,29.915
2022-08-03T14:40:17.238Z,29.915
2022-08-03T14:45:20.370Z,29.914
2022-08-03T14:50:34.674Z,29.918
2022-08-03T14:55:17.244Z,29.918
2022-08-03T15:00:17.343Z,29.913
2022-08-03T15:05:17.194Z,29.911
2022-08-03T15:10:17.378Z,29.913
2022-08-03T15:15:17.543Z,29.914
2022-08-03T15:20:23.336Z,29.915
2022-08-03T15:26:06.441Z,29.917
2022-08-03T15:26:30.292Z,29.917
2022-08-03T15:30:17.453Z,29.917
2022-08-03T15:35:17.435Z,29.917
2022-08-03T15:40:17.497Z,29.920
2022-08-03T15:45:20.356Z,29.921
2022-08-03T15:50:17.270Z,29.923
2022-08-03T15:55:17.436Z,29.921
2022-08-03T16:00:17.408Z,29.921
2022-08-03T16:05:17.328Z,29.923
2022-08-03T16:10:17.539Z,29.925
2022-08-03T16:15:17.694Z,29.924
2022-08-03T16:20:29.222Z,29.926
2022-08-03T16:25:17.510Z,29.924
2022-08-03T16:30:17.559Z,29.923
2022-08-03T16:35:19.567Z,29.921
2022-08-03T16:40:19.513Z,29.919
2022-08-03T16:45:17.551Z,29.917
2022-08-03T16:50:20.061Z,29.918
2022-08-03T16:55:42.814Z,29.919
2022-08-03T17:00:34.266Z,29.920
2022-08-03T17:05:17.582Z,29.918
2022-08-03T17:10:17.522Z,29.918
2022-08-03T17:15:17.598Z,29.915
2022-08-03T17:20:18.029Z,29.917
2022-08-03T17:25:21.960Z,29.918
2022-08-03T17:30:17.443Z,29.917
2022-08-03T17:35:17.612Z,29.922
2022-08-03T17:40:18.130Z,29.924
2022-08-03T17:45:17.903Z,29.922
2022-08-03T17:50:24.983Z,29.923
2022-08-03T17:55:55.831Z,29.921
2022-08-03T18:00:18.044Z,29.919
2022-08-03T18:05:17.809Z,29.915
2022-08-03T18:10:17.626Z,29.914
2022-08-03T18:15:21.359Z,29.912
2022-08-03T18:20:31.220Z,29.909
2022-08-03T18:25:17.641Z,29.910
2022-08-03T18:30:17.710Z,29.909
2022-08-03T18:35:17.811Z,29.909
2022-08-03T18:40:20.726Z,29.907
2022-08-03T18:45:57.475Z,29.905
2022-08-03T18:50:19.317Z,29.904
2022-08-03T18:55:20.727Z,29.903
2022-08-03T19:00:24.998Z,29.900
2022-08-03T19:05:17.921Z,29.897
2022-08-03T19:10:19.064Z,29.894
2022-08-03T19:15:18.093Z,29.893
2022-08-03T19:20:17.732Z,29.892
2022-08-03T19:25:17.807Z,29.890
2022-08-03T19:30:26.087Z,29.891
2022-08-03T19:35:18.995Z,29.895
2022-08-03T19:40:19.957Z,29.895
2022-08-03T19:45:18.036Z,29.895
2022-08-03T19:50:17.954Z,29.890
2022-08-03T19:55:17.891Z,29.889
2022-08-03T20:00:18.402Z,29.888
2022-08-03T20:05:17.839Z,29.888
2022-08-03T20:10:17.858Z,29.889
2022-08-03T20:15:31.134Z,29.891
2022-08-03T20:20:21.115Z,29.893
2022-08-03T20:25:20.993Z,29.893
2022-08-03T20:30:17.961Z,29.893
2022-08-03T20:35:17.949Z,29.891
2022-08-03T20:40:17.904Z,29.889
2022-08-03T20:46:01.045Z,29.889
2022-08-03T20:46:29.672Z,29.889
2022-08-03T20:50:18.018Z,29.886
2022-08-03T20:55:18.037Z,29.887
2022-08-03T21:00:17.963Z,29.885
2022-08-03T21:05:18.046Z,29.886
2022-08-03T21:10:17.990Z,29.886
2022-08-03T21:16:02.933Z,29.889
2022-08-03T21:20:18.001Z,29.888
2022-08-03T21:25:18.085Z,29.888
2022-08-03T21:30:18.344Z,29.886
2022-08-03T21:35:18.054Z,29.883
2022-08-03T21:40:17.972Z,29.880
2022-08-03T21:45:18.998Z,29.881
2022-08-03T21:50:17.970Z,29.879
2022-08-03T21:55:18.459Z,29.878
2022-08-03T22:00:18.511Z,29.877
2022-08-03T22:05:18.290Z,29.876
2022-08-03T22:10:18.090Z,29.873
2022-08-03T22:15:18.186Z,29.870
2022-08-03T22:20:18.022Z,29.871
2022-08-03T22:25:18.212Z,29.875
2022-08-03T22:30:18.225Z,29.876
2022-08-03T22:35:18.750Z,29.877
2022-08-03T22:40:18.182Z,29.878
2022-08-03T22:46:07.467Z,29.875
2022-08-03T22:50:31.235Z,29.876
2022-08-03T22:55:24.714Z,29.879
2022-08-03T23:00:16.521Z,29.879
2022-08-03T23:05:59.500Z,29.881
2022-08-03T23:10:16.157Z,29.880
2022-08-03T23:15:16.556Z,29.881
2022-08-03T23:20:16.159Z,29.881
2022-08-03T23:25:16.199Z,29.886
2022-08-03T23:30:16.324Z,29.888
2022-08-03T23:35:16.462Z,29.891
2022-08-03T23:40:16.182Z,29.887
2022-08-03T23:45:16.945Z,29.894
2022-08-03T23:50:16.259Z,29.893
2022-08-03T23:55:16.393Z,29.892
